createdAt,value
2022-08-04T00:02:27.282Z,6.20
2022-08-04T00:05:00.484Z,6.32
2022-08-04T00:07:48.343Z,5.82
2022-08-04T00:10:18.833Z,6.47
2022-08-04T00:12:50.055Z,6.18
2022-08-04T00:15:17.978Z,5.68
2022-08-04T00:18:04.476Z,5.40
2022-08-04T00:20:33.988Z,5.35
2022-08-04T00:23:02.291Z,5.22
2022-08-04T00:25:29.117Z,5.22
2022-08-04T00:27:56.225Z,5.38
2022-08-04T00:30:22.915Z,5.10
2022-08-04T00:32:49.625Z,7.32
2022-08-04T00:35:17.665Z,5.45
2022-08-04T00:37:45.619Z,5.22
2022-08-04T00:40:12.632Z,5.25
2022-08-04T00:42:59.337Z,5.35
2022-08-04T00:46:15.885Z,6.60
2022-08-04T00:48:54.578Z,6.20
2022-08-04T00:51:30.227Z,5.00
2022-08-04T00:54:11.787Z,5.40
2022-08-04T00:57:30.045Z,5.20
2022-08-04T01:00:03.959Z,4.88
2022-08-04T01:02:48.091Z,5.53
2022-08-04T01:05:37.864Z,5.35
2022-08-04T01:08:23.394Z,5.32
2022-08-04T01:11:08.216Z,5.78
2022-08-04T01:14:00.795Z,4.65
2022-08-04T01:16:28.856Z,5.97
2022-08-04T01:19:35.219Z,5.93
2022-08-04T01:22:18.783Z,6.28
2022-08-04T01:24:59.494Z,4.45
2022-08-04T01:28:05.187Z,4.90
2022-08-04T01:30:34.606Z,5.43
2022-08-04T01:33:04.922Z,5.30
2022-08-04T01:35:48.877Z,4.90
2022-08-04T01:38:26.151Z,5.13
2022-08-04T01:40:56.908Z,5.85
2022-08-04T01:43:24.525Z,4.82
2022-08-04T01:45:58.050Z,4.45
2022-08-04T01:48:26.120Z,5.15
2022-08-04T01:50:54.368Z,4.55
2022-08-04T01:53:21.479Z,5.97
2022-08-04T01:55:55.598Z,8.55
2022-08-04T02:01:08.946Z,4.05
2022-08-04T02:04:20.426Z,4.28
2022-08-04T02:07:03.800Z,3.88
2022-08-04T02:09:54.986Z,7.15
2022-08-04T02:12:26.082Z,6.05
2022-08-04T02:15:22.348Z,3.72
2022-08-04T02:17:57.262Z,3.35
2022-08-04T02:20:29.135Z,3.75
2022-08-04T02:23:43.151Z,3.80
2022-08-04T02:26:22.612Z,4.13
2022-08-04T02:29:03.765Z,3.50
2022-08-04T02:31:43.258Z,9.73
2022-08-04T02:34:13.877Z,14.60
2022-08-04T02:36:41.691Z,5.32
2022-08-04T02:39:09.869Z,3.50
2022-08-04T02:41:40.016Z,11.38
2022-08-04T02:44:10.350Z,24.88
2022-08-04T02:46:39.083Z,29.98
2022-08-04T02:49:07.862Z,12.00
2022-08-04T02:51:36.735Z,10.88
2022-08-04T02:54:06.790Z,33.70
2022-08-04T02:56:38.632Z,13.23
2022-08-04T02:59:08.260Z,9.25
2022-08-04T03:01:35.293Z,4.50
2022-08-04T03:04:28.797Z,5.82
2022-08-04T03:07:16.727Z,7.03
2022-08-04T03:10:14.480Z,3.58
2022-08-04T03:13:02.740Z,3.03
2022-08-04T03:16:08.226Z,3.30
2022-08-04T03:18:46.832Z,4.53
2022-08-04T03:21:19.328Z,4.60
2022-08-04T03:24:10.374Z,19.65
2022-08-04T03:26:48.989Z,14.52
2022-08-04T03:29:37.614Z,18.75
2022-08-04T03:32:31.939Z,18.48
2022-08-04T03:35:40.380Z,8.50
2022-08-04T03:38:45.155Z,6.35
2022-08-04T03:41:51.325Z,4.80
2022-08-04T03:44:20.864Z,3.38
2022-08-04T03:46:56.441Z,7.93
2022-08-04T03:49:35.065Z,5.13
2022-08-04T03:52:34.712Z,4.80
2022-08-04T03:55:25.403Z,6.75
2022-08-04T03:58:31.868Z,9.07
2022-08-04T04:02:01.133Z,9.68
2022-08-04T04:04:30.622Z,6.75
2022-08-04T04:07:12.383Z,5.97
2022-08-04T04:10:05.864Z,4.40
2022-08-04T04:12:41.738Z,2.63
2022-08-04T04:15:35.494Z,5.00
2022-08-04T04:18:33.760Z,5.30
2022-08-04T04:21:35.542Z,3.95
2022-08-04T04:24:32.846Z,3.97
2022-08-04T04:27:27.822Z,4.22
2022-08-04T04:30:19.170Z,5.05
2022-08-04T04:33:34.923Z,4.20
2022-08-04T04:36:25.279Z,4.18
2022-08-04T04:39:03.323Z,4.93
2022-08-04T04:41:41.626Z,3.05
2022-08-04T04:44:08.082Z,4.68
2022-08-04T04:47:06.914Z,5.50
2022-08-04T04:49:44.916Z,4.50
2022-08-04T04:52:27.213Z,5.00
2022-08-04T04:55:21.790Z,4.78
2022-08-04T04:57:54.770Z,5.88
2022-08-04T05:00:26.340Z,4.90
2022-08-04T05:03:00.405Z,3.80
2022-08-04T05:05:48.691Z,3.50
2022-08-04T05:08:45.317Z,3.95
2022-08-04T05:11:32.379Z,3.55
2022-08-04T05:14:36.506Z,3.72
2022-08-04T05:17:15.867Z,3.63
2022-08-04T05:20:04.438Z,4.78
2022-08-04T05:22:39.456Z,3.70
2022-08-04T05:25:17.687Z,5.47
2022-08-04T05:27:56.291Z,5.20
2022-08-04T05:30:27.275Z,5.07
2022-08-04T05:33:00.992Z,4.97
2022-08-04T05:35:53.988Z,6.55
2022-08-04T05:38:25.068Z,5.50
2022-08-04T05:40:52.897Z,7.30
2022-08-04T05:43:22.647Z,5.97
2022-08-04T05:45:51.578Z,6.50
2022-08-04T05:48:18.854Z,7.07
2022-08-04T05:50:46.559Z,6.50
2022-08-04T05:53:16.741Z,6.28
2022-08-04T05:55:49.033Z,5.90
2022-08-04T05:58:29.544Z,7.47
2022-08-04T06:00:58.387Z,7.30
2022-08-04T06:03:29.008Z,7.15
2022-08-04T06:05:57.693Z,7.72
2022-08-04T06:08:25.099Z,8.48
2022-08-04T06:10:54.555Z,7.88
2022-08-04T06:13:48.150Z,8.13
2022-08-04T06:16:30.311Z,8.80
2022-08-04T06:19:59.592Z,9.23
2022-08-04T06:21:50.000Z,8.20
2022-08-04T06:24:20.493Z,10.60
2022-08-04T06:26:49.543Z,11.48
2022-08-04T06:29:26.996Z,13.02
2022-08-04T06:32:27.210Z,12.05
2022-08-04T06:34:50.959Z,12.00
2022-08-04T06:37:41.215Z,13.68
2022-08-04T06:40:31.512Z,16.20
2022-08-04T06:42:56.121Z,16.40
2022-08-04T06:45:24.144Z,18.02
2022-08-04T06:47:51.112Z,20.73
2022-08-04T06:51:25.476Z,19.30
2022-08-04T06:53:06.898Z,23.75
2022-08-04T06:55:35.131Z,23.98
2022-08-04T06:58:03.536Z,29.00
2022-08-04T07:00:32.328Z,31.20
2022-08-04T07:03:00.919Z,31.75
2022-08-04T07:05:28.368Z,27.65
2022-08-04T07:07:57.096Z,25.20
2022-08-04T07:10:27.745Z,26.42
2022-08-04T07:12:56.615Z,29.08
2022-08-04T07:15:23.666Z,24.70
2022-08-04T07:17:52.292Z,26.30
2022-08-04T07:20:34.477Z,29.23
2022-08-04T07:23:04.128Z,24.77
2022-08-04T07:26:00.107Z,29.23
2022-08-04T07:28:17.806Z,27.70
2022-08-04T07:30:45.581Z,31.50
2022-08-04T07:33:12.599Z,25.35
2022-08-04T07:36:03.744Z,28.77
2022-08-04T07:38:27.691Z,32.90
2022-08-04T07:40:55.535Z,32.50
2022-08-04T07:43:23.172Z,35.90
2022-08-04T07:45:50.025Z,37.25
2022-08-04T07:48:18.897Z,40.85
2022-08-04T07:50:46.879Z,44.63
2022-08-04T07:53:54.851Z,45.78
2022-08-04T07:56:02.772Z,43.60
2022-08-04T07:58:30.244Z,54.55
2022-08-04T08:00:58.046Z,56.88
2022-08-04T08:03:27.324Z,59.65
2022-08-04T08:05:54.721Z,63.05
2022-08-04T08:08:40.989Z,65.93
2022-08-04T08:11:09.357Z,60.58
2022-08-04T08:13:37.054Z,68.55
2022-08-04T08:16:05.374Z,75.35
2022-08-04T08:18:32.028Z,74.85
2022-08-04T08:20:58.685Z,69.38
2022-08-04T08:23:26.515Z,69.43
2022-08-04T08:25:54.326Z,102.82
2022-08-04T08:28:20.997Z,76.50
2022-08-04T08:30:52.604Z,103.53
2022-08-04T08:33:21.207Z,95.97
2022-08-04T08:35:53.782Z,76.18
2022-08-04T08:38:33.581Z,77.55
2022-08-04T08:41:27.759Z,93.15
2022-08-04T08:44:37.516Z,80.38
2022-08-04T08:47:30.502Z,75.72
2022-08-04T08:50:47.566Z,77.82
2022-08-04T08:53:31.202Z,81.90
2022-08-04T08:56:30.941Z,88.07
2022-08-04T08:59:15.079Z,100.13
2022-08-04T09:01:57.322Z,103.60
2022-08-04T09:04:51.863Z,110.50
2022-08-04T09:07:30.455Z,113.57
2022-08-04T09:10:16.282Z,131.88
2022-08-04T09:12:57.890Z,141.00
2022-08-04T09:15:39.749Z,131.32
2022-08-04T09:18:31.346Z,139.95
2022-08-04T09:21:30.771Z,151.75
2022-08-04T09:24:05.044Z,169.25
2022-08-04T09:29:45.743Z,151.23
2022-08-04T09:32:23.578Z,177.60
2022-08-04T09:35:20.431Z,158.88
2022-08-04T09:38:10.273Z,154.90
2022-08-04T09:40:58.851Z,160.13
2022-08-04T09:44:42.342Z,156.82
2022-08-04T09:46:27.844Z,139.65
2022-08-04T09:49:07.684Z,141.38
2022-08-04T09:51:59.027Z,138.98
2022-08-04T09:54:48.947Z,148.68
2022-08-04T09:57:15.500Z,157.35
2022-08-04T10:00:09.259Z,142.15
2022-08-04T10:02:44.365Z,126.10
2022-08-04T10:05:19.739Z,140.68
2022-08-04T10:08:16.423Z,148.43
2022-08-04T10:11:00.377Z,150.45
2022-08-04T10:13:53.361Z,143.57
2022-08-04T10:16:45.142Z,147.32
2022-08-04T10:19:35.311Z,137.18
2022-08-04T10:22:50.019Z,143.60
2022-08-04T10:26:06.251Z,154.48
2022-08-04T10:28:45.834Z,158.48
2022-08-04T10:31:20.858Z,160.50
2022-08-04T10:33:57.843Z,160.68
2022-08-04T10:36:30.327Z,175.02
2022-08-04T10:39:41.759Z,170.18
2022-08-04T10:42:03.500Z,168.95
2022-08-04T10:47:20.178Z,136.35
2022-08-04T10:49:54.377Z,138.90
2022-08-04T10:52:33.797Z,127.50
2022-08-04T10:56:07.777Z,162.07
2022-08-04T11:02:01.397Z,145.13
2022-08-04T11:04:35.556Z,135.50
2022-08-04T11:07:02.631Z,168.65
2022-08-04T11:09:31.674Z,175.35
2022-08-04T11:12:07.119Z,101.35
2022-08-04T11:14:36.798Z,188.43
2022-08-04T11:17:11.315Z,105.53
2022-08-04T11:19:53.285Z,142.93
2022-08-04T11:22:23.456Z,144.35
2022-08-04T11:25:03.233Z,104.93
2022-08-04T11:27:40.427Z,96.65
2022-08-04T11:30:08.961Z,93.53
2022-08-04T11:33:09.407Z,76.45
2022-08-04T11:35:44.563Z,84.43
2022-08-04T11:38:43.683Z,81.35
2022-08-04T11:41:18.706Z,53.33
2022-08-04T11:44:00.713Z,45.50
2022-08-04T11:46:44.097Z,49.47
2022-08-04T11:49:15.522Z,48.05
2022-08-04T11:51:44.538Z,52.45
2022-08-04T11:54:12.824Z,60.03
2022-08-04T11:56:39.688Z,57.22
2022-08-04T11:59:10.140Z,58.00
2022-08-04T12:01:44.432Z,44.53
2022-08-04T12:04:24.350Z,48.20
2022-08-04T12:07:33.052Z,48.50
2022-08-04T12:10:43.363Z,53.05
2022-08-04T12:13:31.716Z,53.22
2022-08-04T12:16:10.808Z,55.63
2022-08-04T12:18:47.300Z,45.95
2022-08-04T12:21:55.964Z,43.95
2022-08-04T12:24:33.547Z,49.47
2022-08-04T12:27:13.839Z,49.33
2022-08-04T12:29:41.560Z,50.72
2022-08-04T12:32:33.005Z,47.72
2022-08-04T12:35:21.822Z,46.55
2022-08-04T12:38:08.606Z,48.20
2022-08-04T12:40:46.976Z,45.45
2022-08-04T12:43:20.178Z,47.03
2022-08-04T12:48:21.436Z,142.63
2022-08-04T12:50:51.204Z,86.95
2022-08-04T12:53:31.519Z,45.90
2022-08-04T12:56:01.716Z,39.63
2022-08-04T12:58:42.046Z,37.03
2022-08-04T13:02:10.155Z,37.75
2022-08-04T13:04:29.297Z,36.30
2022-08-04T13:07:10.763Z,33.50
2022-08-04T13:09:38.424Z,38.08
2022-08-04T13:12:13.718Z,46.63
2022-08-04T13:14:44.482Z,36.63
2022-08-04T13:17:12.260Z,33.65
2022-08-04T13:19:41.439Z,32.60
2022-08-04T13:22:09.256Z,30.70
2022-08-04T13:24:56.681Z,28.60
2022-08-04T13:27:25.838Z,34.20
2022-08-04T13:29:58.745Z,29.98
2022-08-04T13:32:31.021Z,31.20
2022-08-04T13:35:00.363Z,31.40
2022-08-04T13:37:38.868Z,25.77
2022-08-04T13:40:09.270Z,24.73
2022-08-04T13:42:38.964Z,20.20
2022-08-04T13:45:08.362Z,19.27
2022-08-04T13:47:38.227Z,19.63
2022-08-04T13:50:13.813Z,20.83
2022-08-04T13:52:42.820Z,19.95
2022-08-04T13:55:19.910Z,18.65
2022-08-04T13:57:52.375Z,19.35
2022-08-04T14:00:29.911Z,19.23
2022-08-04T14:03:23.281Z,20.95
2022-08-04T14:08:58.710Z,19.58
2022-08-04T14:12:09.922Z,19.63
2022-08-04T14:14:30.000Z,22.10
2022-08-04T14:17:05.714Z,20.50
2022-08-04T14:20:07.246Z,21.95
2022-08-04T14:22:36.615Z,21.02
2022-08-04T14:25:16.738Z,21.30
2022-08-04T14:27:55.915Z,21.23
2022-08-04T14:30:36.936Z,20.90
2022-08-04T14:34:02.041Z,20.60
2022-08-04T14:36:04.133Z,20.95
2022-08-04T14:38:58.529Z,19.85
2022-08-04T14:41:31.530Z,20.80
2022-08-04T14:44:00.807Z,20.02
2022-08-04T14:46:36.279Z,19.73
2022-08-04T14:49:10.225Z,18.35
2022-08-04T14:51:59.014Z,17.35
2022-08-04T14:54:35.870Z,17.27
2022-08-04T14:57:06.466Z,16.75
2022-08-04T15:00:01.604Z,16.52
2022-08-04T15:02:30.515Z,17.20
2022-08-04T15:04:57.761Z,17.42
2022-08-04T15:07:24.797Z,18.17
2022-08-04T15:09:53.925Z,17.80
2022-08-04T15:12:21.206Z,17.15
2022-08-04T15:14:48.010Z,17.13
2022-08-04T15:17:29.202Z,17.23
2022-08-04T15:19:57.312Z,17.77
2022-08-04T15:22:24.071Z,19.38
2022-08-04T15:24:54.911Z,18.30
2022-08-04T15:27:26.612Z,16.73
2022-08-04T15:30:01.618Z,18.15
2022-08-04T15:32:32.062Z,17.25
2022-08-04T15:35:30.822Z,17.48
2022-08-04T15:38:24.058Z,18.08
2022-08-04T15:41:08.046Z,17.20
2022-08-04T15:43:40.436Z,17.40
2022-08-04T15:46:43.440Z,16.30
2022-08-04T15:48:56.085Z,18.60
2022-08-04T15:51:32.091Z,16.38
2022-08-04T15:54:03.483Z,18.08
2022-08-04T15:56:34.916Z,17.55
2022-08-04T15:59:01.455Z,17.88
2022-08-04T16:01:28.268Z,17.23
2022-08-04T16:03:59.894Z,17.80
2022-08-04T16:06:29.086Z,18.48
2022-08-04T16:09:04.124Z,19.77
2022-08-04T16:11:32.595Z,17.20
2022-08-04T16:13:59.632Z,17.42
2022-08-04T16:16:38.567Z,18.45
2022-08-04T16:19:35.329Z,18.17
2022-08-04T16:22:03.871Z,17.02
2022-08-04T16:24:36.235Z,16.73
2022-08-04T16:27:13.729Z,17.25
2022-08-04T16:29:47.925Z,17.00
2022-08-04T16:32:20.616Z,18.20
2022-08-04T16:34:55.477Z,17.45
2022-08-04T16:37:37.841Z,18.48
2022-08-04T16:40:39.003Z,19.00
2022-08-04T16:43:17.691Z,19.52
2022-08-04T16:45:47.110Z,21.90
2022-08-04T16:48:17.760Z,21.35
2022-08-04T16:51:06.442Z,22.17
2022-08-04T16:53:53.539Z,22.58
2022-08-04T16:56:29.588Z,22.38
2022-08-04T16:58:56.490Z,21.75
2022-08-04T17:01:33.787Z,20.95
2022-08-04T17:04:05.100Z,21.45
2022-08-04T17:06:40.234Z,21.83
2022-08-04T17:09:11.321Z,22.00
2022-08-04T17:11:38.117Z,22.90
2022-08-04T17:14:06.137Z,23.75
2022-08-04T17:16:38.311Z,21.42
2022-08-04T17:19:07.167Z,21.42
2022-08-04T17:21:52.429Z,21.40
2022-08-04T17:24:18.970Z,23.67
2022-08-04T17:26:54.527Z,26.90
2022-08-04T17:29:43.247Z,24.45
2022-08-04T17:32:20.799Z,23.05
2022-08-04T17:34:54.452Z,26.60
2022-08-04T17:37:41.208Z,39.03
2022-08-04T17:40:22.872Z,37.80
2022-08-04T17:44:02.979Z,47.05
2022-08-04T17:46:28.598Z,50.80
2022-08-04T17:49:09.048Z,67.07
2022-08-04T17:52:05.235Z,63.17
2022-08-04T17:54:36.566Z,97.93
2022-08-04T17:57:20.017Z,68.88
2022-08-04T18:02:39.064Z,85.65
2022-08-04T18:05:11.852Z,102.38
2022-08-04T18:08:39.101Z,109.00
2022-08-04T18:10:55.353Z,111.15
2022-08-04T18:13:27.402Z,90.90
2022-08-04T18:16:02.666Z,107.25
2022-08-04T18:18:29.870Z,114.25
2022-08-04T18:20:59.793Z,92.38
2022-08-04T18:26:02.058Z,126.10
2022-08-04T18:28:33.073Z,136.20
2022-08-04T18:31:00.733Z,167.50
2022-08-04T18:33:39.489Z,242.27
2022-08-04T18:36:34.313Z,247.07
2022-08-04T18:38:58.333Z,347.75
2022-08-04T18:41:27.167Z,323.92
2022-08-04T18:43:56.737Z,317.48
2022-08-04T18:46:26.904Z,340.27
2022-08-04T18:48:54.591Z,331.38
2022-08-04T18:51:24.938Z,376.38
2022-08-04T18:53:58.959Z,326.45
2022-08-04T18:56:32.896Z,320.63
2022-08-04T18:59:10.557Z,324.10
2022-08-04T19:02:12.225Z,354.48
2022-08-04T19:04:32.458Z,310.55
2022-08-04T19:07:28.890Z,304.83
2022-08-04T19:09:52.045Z,298.13
2022-08-04T19:12:26.569Z,277.75
2022-08-04T19:15:08.427Z,293.15
2022-08-04T19:17:54.197Z,350.73
2022-08-04T19:20:26.328Z,328.33
2022-08-04T19:24:29.484Z,333.08
2022-08-04T19:25:58.705Z,316.58
2022-08-04T19:28:29.818Z,382.58
2022-08-04T19:30:57.686Z,420.10
2022-08-04T19:33:25.368Z,372.67
2022-08-04T19:35:52.418Z,371.30
2022-08-04T19:38:20.638Z,348.30
2022-08-04T19:40:50.682Z,378.20
2022-08-04T19:43:20.886Z,394.30
2022-08-04T19:45:51.170Z,426.67
2022-08-04T19:48:19.982Z,372.42
2022-08-04T19:50:48.259Z,426.88
2022-08-04T19:53:19.562Z,390.02
2022-08-04T19:55:49.643Z,307.83
2022-08-04T19:58:16.870Z,321.65
2022-08-04T20:00:44.802Z,287.88
2022-08-04T20:03:20.275Z,288.42
2022-08-04T20:05:53.475Z,275.25
2022-08-04T20:08:24.168Z,260.60
2022-08-04T20:10:52.311Z,240.43
2022-08-04T20:13:25.514Z,244.50
2022-08-04T20:16:04.719Z,338.80
2022-08-04T20:18:36.061Z,330.70
2022-08-04T20:21:11.253Z,244.77
2022-08-04T20:23:47.749Z,283.80
2022-08-04T20:26:15.447Z,275.33
2022-08-04T20:28:42.250Z,283.50
2022-08-04T20:31:18.447Z,284.95
2022-08-04T20:33:49.090Z,272.27
2022-08-04T20:36:20.276Z,262.77
2022-08-04T20:38:51.914Z,282.00
2022-08-04T20:41:20.799Z,274.63
2022-08-04T20:43:49.756Z,209.50
2022-08-04T20:46:29.290Z,263.30
2022-08-04T20:48:56.338Z,202.77
2022-08-04T20:51:32.193Z,203.13
2022-08-04T20:54:01.974Z,172.30
2022-08-04T20:56:30.522Z,172.98
2022-08-04T20:58:59.437Z,194.50
2022-08-04T21:01:29.570Z,143.18
2022-08-04T21:04:27.483Z,120.65
2022-08-04T21:06:55.396Z,134.45
2022-08-04T21:09:26.531Z,136.80
2022-08-04T21:12:06.982Z,113.85
2022-08-04T21:14:34.580Z,103.45
2022-08-04T21:17:02.999Z,96.80
2022-08-04T21:19:31.700Z,101.93
2022-08-04T21:21:59.166Z,105.88
2022-08-04T21:24:26.571Z,101.72
2022-08-04T21:26:56.788Z,92.90
2022-08-04T21:29:34.541Z,101.00
2022-08-04T21:32:07.726Z,87.82
2022-08-04T21:34:39.618Z,90.38
2022-08-04T21:39:59.325Z,95.18
2022-08-04T21:42:42.506Z,79.05
2022-08-04T21:45:09.913Z,73.95
2022-08-04T21:47:46.561Z,78.32
2022-08-04T21:50:19.940Z,74.05
2022-08-04T21:52:47.644Z,76.68
2022-08-04T21:55:14.182Z,68.82
2022-08-04T21:57:42.014Z,62.67
2022-08-04T22:00:10.815Z,65.45
2022-08-04T22:02:44.820Z,59.15
2022-08-04T22:05:11.882Z,55.22
2022-08-04T22:07:50.539Z,52.15
2022-08-04T22:10:18.463Z,41.97
2022-08-04T22:12:52.109Z,49.15
2022-08-04T22:16:02.773Z,44.72
2022-08-04T22:18:05.568Z,33.83
2022-08-04T22:20:32.108Z,33.55
2022-08-04T22:23:15.349Z,27.05
2022-08-04T22:25:42.163Z,25.83
2022-08-04T22:28:11.624Z,23.05
2022-08-04T22:30:48.325Z,21.40
2022-08-04T22:33:18.921Z,20.00
2022-08-04T22:35:49.936Z,19.17
2022-08-04T22:38:36.978Z,15.10
2022-08-04T22:41:17.696Z,16.23
2022-08-04T22:43:45.986Z,14.40
2022-08-04T22:46:26.811Z,13.38
2022-08-04T22:48:54.405Z,13.10
2022-08-04T22:51:22.444Z,15.50
2022-08-04T22:53:50.201Z,13.80
2022-08-04T22:56:38.124Z,15.18
2022-08-04T22:59:04.815Z,11.63
2022-08-04T23:01:57.963Z,12.63
2022-08-04T23:04:17.911Z,14.82
2022-08-04T23:06:44.453Z,16.63
2022-08-04T23:09:15.993Z,16.38
2022-08-04T23:11:43.770Z,11.63
2022-08-04T23:14:10.536Z,11.63
2022-08-04T23:16:40.882Z,9.63
2022-08-04T23:19:12.159Z,14.63
2022-08-04T23:21:47.810Z,10.27
2022-08-04T23:24:29.761Z,9.85
2022-08-04T23:26:58.023Z,10.98
2022-08-04T23:29:25.186Z,10.82
2022-08-04T23:31:59.729Z,11.38
2022-08-04T23:34:29.179Z,10.73
2022-08-04T23:36:56.282Z,7.90
2022-08-04T23:39:25.886Z,9.23
2022-08-04T23:42:15.002Z,7.13
2022-08-04T23:44:47.354Z,8.52
2022-08-04T23:48:15.932Z,10.00
2022-08-04T23:50:00.626Z,6.95
2022-08-04T23:52:29.621Z,7.35
2022-08-04T23:55:00.691Z,7.13
2022-08-04T23:58:02.263Z,6.88
